.
WxDataArchive / Data Records for 2014-11-18
2014-11-17 November 2014 2014-11-19

Data Records for Tuesday, 18 November 2014

Time	Temp	Chill	HIndex	Humid	Dewpt	 Wind 	HiWind	WindDir	Rain 	Barom
-----	----	-----	------	-----	-----	------	------	-------	-----	-----
00:00	12.6	12.6	12.6	58	0.7	3	6	248	0.00	29.988 
00:05	12.6	12.6	12.6	58	0.7	2	6	248	0.00	29.988 
00:10	12.4	12.4	12.4	57	0.1	3	6	248	0.00	29.988 
00:15	12.4	12.4	12.4	57	0.1	3	6	248	0.00	29.981 
00:20	12.3	12.3	12.3	57	0.0	3	7	248	0.00	29.981 
00:25	12.3	12.3	12.3	58	0.4	2	6	248	0.00	29.981 
00:30	12.1	12.1	12.1	58	0.2	1	5	248	0.00	29.987 
00:35	12.1	12.1	12.1	59	0.6	2	11	270	0.00	29.987 
00:40	11.9	11.9	11.9	60	0.7	2	6	270	0.00	29.987 
00:45	11.9	11.9	11.9	61	1.1	3	7	248	0.00	29.988 
00:50	11.7	11.7	11.7	61	0.9	2	5	248	0.00	29.988 
00:55	11.6	11.6	11.6	62	1.1	2	6	270	0.00	29.988 
01:00	11.6	11.6	11.6	63	1.5	1	6	248	0.00	29.977 
01:05	11.4	11.4	11.4	63	1.3	2	7	248	0.00	29.977 
01:10	11.4	11.4	11.4	62	0.9	2	6	248	0.00	29.977 
01:15	11.4	11.4	11.4	62	0.9	2	6	248	0.00	29.977 
01:20	11.2	11.2	11.2	61	0.4	2	7	248	0.00	29.977 
01:25	11.2	11.2	11.2	61	0.4	3	11	270	0.00	29.977 
01:30	11.2	11.2	11.2	60	0.1	3	6	270	0.00	29.977 
01:35	11.2	4.0	11.2	60	0.1	4	10	270	0.00	29.977 
01:40	11.1	11.1	11.1	61	0.3	2	5	248	0.00	29.977 
01:45	11.1	11.1	11.1	61	0.3	3	11	248	0.00	29.978 
01:50	11.1	11.1	11.1	61	0.3	3	6	248	0.00	29.978 
01:55	10.9	10.9	10.9	61	0.1	3	7	248	0.00	29.978 
02:00	10.9	10.9	10.9	61	0.1	2	6	248	0.00	29.981 
02:05	10.7	10.7	10.7	61	-0.1	2	6	270	0.00	29.981 
02:10	10.7	10.7	10.7	62	0.3	2	7	248	0.00	29.981 
02:15	10.5	10.5	10.5	62	0.1	2	7	248	0.00	29.982 
02:20	10.5	10.5	10.5	62	0.1	2	9	270	0.00	29.982 
02:25	10.5	10.5	10.5	62	0.1	3	7	248	0.00	29.982 
02:30	10.5	10.5	10.5	62	0.1	2	7	248	0.00	29.980 
02:35	10.5	10.5	10.5	62	0.1	2	5	248	0.00	29.980 
02:40	10.5	10.5	10.5	63	0.4	2	6	248	0.00	29.980 
02:45	10.5	10.5	10.5	64	0.8	2	6	248	0.00	29.982 
02:50	10.5	10.5	10.5	64	0.8	1	5	248	0.00	29.982 
02:55	10.5	10.5	10.5	64	0.8	3	7	248	0.00	29.982 
03:00	10.5	10.5	10.5	64	0.8	3	6	248	0.00	29.987 
03:05	10.5	10.5	10.5	65	1.1	1	4	248	0.00	29.987 
03:10	10.5	10.5	10.5	66	1.4	2	5	248	0.00	29.987 
03:15	10.5	10.5	10.5	66	1.4	2	7	248	0.00	29.987 
03:20	10.7	10.7	10.7	67	1.9	3	9	248	0.00	29.987 
03:25	10.7	10.7	10.7	68	2.3	2	5	248	0.00	29.987 
03:30	10.7	10.7	10.7	68	2.3	1	6	270	0.00	29.986 
03:35	10.7	10.7	10.7	68	2.3	3	7	248	0.00	29.986 
03:40	10.7	10.7	10.7	67	1.9	2	6	248	0.00	29.986 
03:45	10.7	10.7	10.7	68	2.3	2	7	248	0.00	29.990 
03:50	10.7	10.7	10.7	67	1.9	2	5	248	0.00	29.990 
03:55	10.5	10.5	10.5	67	1.7	2	4	270	0.00	29.990 
04:00	10.4	10.4	10.4	67	1.6	2	9	248	0.00	29.994 
04:05	10.2	10.2	10.2	68	1.8	2	7	248	0.00	29.994 
04:10	10.0	10.0	10.0	68	1.6	2	6	248	0.00	29.994 
04:15	10.0	10.0	10.0	69	1.9	2	5	248	0.00	29.999 
04:20	10.0	10.0	10.0	69	1.9	1	5	248	0.00	29.999 
04:25	9.9	9.9	9.9	70	2.1	2	6	248	0.00	29.999 
04:30	9.9	9.9	9.9	70	2.1	2	7	248	0.00	30.004 
04:35	9.9	9.9	9.9	70	2.1	2	5	248	0.00	30.004 
04:40	9.9	9.9	9.9	70	2.1	2	7	248	0.00	30.004 
04:45	9.9	9.9	9.9	70	2.1	2	5	248	0.00	30.009 
04:50	9.9	9.9	9.9	70	2.1	2	9	248	0.00	30.009 
04:55	9.9	9.9	9.9	70	2.1	2	9	248	0.00	30.009 
05:00	9.9	9.9	9.9	70	2.1	3	13	248	0.00	30.008 
05:05	9.9	9.9	9.9	70	2.1	2	6	248	0.00	30.008 
05:10	9.7	9.7	9.7	71	2.2	1	6	270	0.00	30.008 
05:15	9.7	9.7	9.7	71	2.2	2	14	270	0.00	30.011 
05:20	9.9	9.9	9.9	71	2.4	2	5	248	0.00	30.011 
05:25	9.9	9.9	9.9	72	2.7	2	6	248	0.00	30.011 
05:30	9.9	9.9	9.9	72	2.7	2	5	248	0.00	30.011 
05:35	9.9	9.9	9.9	72	2.7	2	6	248	0.00	30.011 
05:40	9.9	9.9	9.9	72	2.7	2	7	248	0.00	30.011 
05:45	10.0	10.0	10.0	71	2.5	2	7	248	0.00	30.014 
05:50	10.0	10.0	10.0	71	2.5	3	9	248	0.00	30.014 
05:55	10.2	10.2	10.2	71	2.7	2	5	248	0.00	30.014 
06:00	10.2	10.2	10.2	71	2.7	2	6	270	0.00	30.018 
06:05	10.4	10.4	10.4	71	2.9	2	6	248	0.00	30.018 
06:10	10.4	10.4	10.4	71	2.9	2	7	248	0.00	30.018 
06:15	10.4	10.4	10.4	71	2.9	2	7	248	0.00	30.025 
06:20	10.5	10.5	10.5	70	2.7	3	6	248	0.00	30.025 
06:25	10.5	10.5	10.5	70	2.7	3	6	248	0.00	30.025 
06:30	10.5	10.5	10.5	70	2.7	2	7	248	0.00	30.026 
06:35	10.5	10.5	10.5	70	2.7	3	6	248	0.00	30.026 
06:40	10.5	10.5	10.5	70	2.7	2	5	248	0.00	30.026 
06:45	10.5	10.5	10.5	70	2.7	3	9	248	0.00	30.032 
06:50	10.7	10.7	10.7	70	2.9	2	6	270	0.00	30.032 
06:55	10.7	10.7	10.7	70	2.9	3	9	248	0.00	30.032 
07:00	10.7	10.7	10.7	70	2.9	2	4	248	0.00	30.042 
07:05	10.5	10.5	10.5	71	3.0	2	9	248	0.00	30.042 
07:10	10.5	10.5	10.5	71	3.0	2	6	248	0.00	30.042 
07:15	10.5	10.5	10.5	71	3.0	2	7	248	0.00	30.046 
07:20	10.5	10.5	10.5	71	3.0	2	6	248	0.00	30.046 
07:25	10.7	10.7	10.7	71	3.2	2	5	270	0.00	30.046 
07:30	10.7	10.7	10.7	71	3.2	2	7	270	0.00	30.055 
07:35	10.5	10.5	10.5	71	3.0	2	5	248	0.00	30.055 
07:40	10.5	10.5	10.5	71	3.0	2	6	292	0.00	30.055 
07:45	10.5	10.5	10.5	71	3.0	3	7	248	0.00	30.056 
07:50	10.5	10.5	10.5	71	3.0	3	9	248	0.00	30.056 
07:55	10.7	10.7	10.7	71	3.2	2	9	248	0.00	30.056 
08:00	10.7	10.7	10.7	71	3.2	2	5	248	0.00	30.059 
08:05	10.7	10.7	10.7	72	3.5	3	7	248	0.00	30.059 
08:10	11.1	11.1	11.1	72	3.9	2	7	248	0.00	30.059 
08:15	11.1	11.1	11.1	71	3.6	2	6	248	0.00	30.063 
08:20	11.2	11.2	11.2	71	3.7	1	5	248	0.00	30.063 
08:25	11.2	4.0	11.2	71	3.7	4	9	248	0.00	30.063 
08:30	11.4	11.4	11.4	71	3.9	2	6	270	0.00	30.069 
08:35	11.6	11.6	11.6	71	4.0	3	9	248	0.00	30.069 
08:40	11.7	11.7	11.7	71	4.1	2	6	248	0.00	30.069 
08:45	11.9	11.9	11.9	70	4.0	3	11	248	0.00	30.069 
08:50	11.9	11.9	11.9	70	4.0	2	7	248	0.00	30.069 
08:55	12.1	12.1	12.1	70	4.2	3	7	248	0.00	30.069 
09:00	12.3	12.3	12.3	70	4.4	2	7	248	0.00	30.074 
09:05	12.6	12.6	12.6	70	4.7	2	5	270	0.00	30.074 
09:10	12.8	12.8	12.8	69	4.6	2	9	270	0.00	30.074 
09:15	13.1	13.1	13.1	69	4.9	2	9	248	0.00	30.080 
09:20	13.3	13.3	13.3	69	5.1	3	7	248	0.00	30.080 
09:25	13.3	13.3	13.3	68	4.7	3	10	248	0.00	30.080 
09:30	13.3	13.3	13.3	68	4.7	3	9	270	0.00	30.086 
09:35	13.5	13.5	13.5	68	4.9	2	5	270	0.00	30.086 
09:40	13.8	13.8	13.8	68	5.2	3	6	270	0.00	30.086 
09:45	14.0	14.0	14.0	67	5.1	3	10	270	0.00	30.085 
09:50	14.0	7.3	14.0	67	5.1	4	12	248	0.00	30.085 
09:55	14.1	14.1	14.1	67	5.2	3	7	270	0.00	30.085 
10:00	14.1	6.1	14.1	66	4.9	5	13	248	0.00	30.090 
10:05	14.3	14.3	14.3	66	5.1	3	9	270	0.00	30.090 
10:10	14.6	14.6	14.6	66	5.3	3	9	270	0.00	30.090 
10:15	14.6	14.6	14.6	65	5.0	3	6	248	0.00	30.092 
10:20	14.6	8.0	14.6	65	5.0	4	9	270	0.00	30.092 
10:25	14.8	14.8	14.8	65	5.2	3	10	248	0.00	30.092 
10:30	15.1	15.1	15.1	65	5.5	2	6	248	0.00	30.093 
10:35	15.2	8.7	15.2	65	5.6	4	7	270	0.00	30.093 
10:40	15.2	8.7	15.2	64	5.2	4	9	270	0.00	30.093 
10:45	15.4	15.4	15.4	65	5.8	3	6	248	0.00	30.104 
10:50	15.2	8.7	15.2	64	5.2	4	8	270	0.00	30.104 
10:55	15.1	8.6	15.1	64	5.1	4	11	248	0.00	30.104 
11:00	14.9	8.3	14.9	63	4.6	4	7	248	0.00	30.106 
11:05	14.9	8.3	14.9	63	4.6	4	10	270	0.00	30.106 
11:10	15.1	15.1	15.1	63	4.8	3	6	248	0.00	30.106 
11:15	15.6	15.6	15.6	65	6.0	3	9	270	0.00	30.110 
11:20	15.7	15.7	15.7	64	5.7	3	6	248	0.00	30.110 
11:25	16.1	16.1	16.1	63	5.8	3	6	248	0.00	30.110 
11:30	16.1	16.1	16.1	63	5.8	3	8	248	0.00	30.110 
11:35	16.2	16.2	16.2	64	6.2	3	7	248	0.00	30.110 
11:40	16.4	16.4	16.4	64	6.4	3	7	248	0.00	30.110 
11:45	16.4	16.4	16.4	65	6.7	2	7	270	0.00	30.107 
11:50	16.5	16.5	16.5	63	6.1	3	6	248	0.00	30.107 
11:55	16.5	16.5	16.5	62	5.8	3	6	248	0.00	30.107 
12:00	16.5	16.5	16.5	62	5.8	2	6	248	0.00	30.104 
12:05	16.4	10.1	16.4	61	5.3	4	10	248	0.00	30.104 
12:10	16.2	9.8	16.2	61	5.1	4	8	270	0.00	30.104 
12:15	16.5	16.5	16.5	62	5.8	3	10	248	0.00	30.106 
12:20	16.4	10.1	16.4	62	5.7	4	10	248	0.00	30.106 
12:25	16.4	10.1	16.4	61	5.3	4	13	248	0.00	30.106 
12:30	16.4	16.4	16.4	62	5.7	3	10	248	0.00	30.107 
12:35	16.5	16.5	16.5	62	5.8	3	9	248	0.00	30.107 
12:40	16.7	16.7	16.7	61	5.6	3	9	248	0.00	30.107 
12:45	16.4	16.4	16.4	61	5.3	3	7	248	0.00	30.107 
12:50	16.4	10.1	16.4	63	6.0	4	10	248	0.00	30.107 
12:55	16.5	10.2	16.5	62	5.8	4	13	248	0.00	30.107 
13:00	16.5	16.5	16.5	63	6.1	3	8	248	0.00	30.106 
13:05	16.4	16.4	16.4	65	6.7	3	9	248	0.00	30.106 
13:10	16.2	16.2	16.2	67	7.2	3	6	248	0.00	30.106 
13:15	15.6	9.1	15.6	71	7.9	4	9	270	0.00	30.112 
13:20	14.9	8.3	14.9	73	7.8	4	8	270	0.00	30.112 
13:25	14.6	8.0	14.6	75	8.1	4	6	270	0.00	30.112 
13:30	14.8	14.8	14.8	73	7.7	3	6	270	0.00	30.112 
13:35	14.9	14.9	14.9	70	6.9	3	7	248	0.00	30.112 
13:40	15.1	8.6	15.1	68	6.5	4	8	248	0.00	30.112 
13:45	15.6	9.1	15.6	63	5.3	4	9	248	0.00	30.109 
13:50	15.9	15.9	15.9	63	5.6	2	6	248	0.00	30.109 
13:55	16.1	16.1	16.1	63	5.8	3	10	248	0.00	30.109 
14:00	16.5	16.5	16.5	62	5.8	2	7	248	0.00	30.118 
14:05	16.7	16.7	16.7	61	5.6	3	7	248	0.00	30.118 
14:10	16.7	16.7	16.7	58	4.5	2	9	248	0.00	30.118 
14:15	16.5	16.5	16.5	60	5.1	3	7	248	0.00	30.120 
14:20	16.2	16.2	16.2	64	6.2	3	7	270	0.00	30.120 
14:25	16.1	16.1	16.1	63	5.8	3	6	270	0.00	30.120 
14:30	16.1	9.7	16.1	60	4.7	4	7	270	0.00	30.124 
14:35	16.2	9.8	16.2	58	4.1	4	11	270	0.00	30.124 
14:40	16.2	16.2	16.2	58	4.1	3	9	270	0.00	30.124 
14:45	16.4	16.4	16.4	58	4.2	2	6	248	0.00	30.124 
14:50	16.7	16.7	16.7	58	4.5	2	7	248	0.00	30.124 
14:55	17.0	17.0	17.0	56	4.0	3	7	248	0.00	30.124 
15:00	16.9	16.9	16.9	57	4.3	3	7	248	0.00	30.126 
15:05	16.7	16.7	16.7	58	4.5	3	6	248	0.00	30.126 
15:10	16.7	10.4	16.7	57	4.1	4	9	248	0.00	30.126 
15:15	16.7	16.7	16.7	58	4.5	3	6	248	0.00	30.127 
15:20	16.5	16.5	16.5	60	5.1	3	7	248	0.00	30.127 
15:25	16.5	16.5	16.5	61	5.4	2	5	248	0.00	30.127 
15:30	16.2	16.2	16.2	63	5.9	3	6	270	0.00	30.133 
15:35	16.4	16.4	16.4	61	5.3	2	6	270	0.00	30.133 
15:40	16.4	16.4	16.4	59	4.6	3	11	248	0.00	30.133 
15:45	16.5	10.2	16.5	60	5.1	4	10	248	0.00	30.136 
15:50	16.5	16.5	16.5	58	4.3	3	8	248	0.00	30.136 
15:55	16.7	16.7	16.7	59	4.9	3	7	248	0.00	30.136 
16:00	17.0	17.0	17.0	60	5.5	2	5	248	0.00	30.139 
16:05	17.2	17.2	17.2	59	5.4	3	11	248	0.00	30.139 
16:10	16.9	16.9	16.9	57	4.3	3	11	248	0.00	30.139 
16:15	16.9	16.9	16.9	57	4.3	2	4	248	0.00	30.144 
16:20	16.9	16.9	16.9	57	4.3	2	6	248	0.00	30.144 
16:25	16.7	16.7	16.7	56	3.8	3	7	248	0.00	30.144 
16:30	16.7	16.7	16.7	56	3.8	2	7	248	0.00	30.150 
16:35	16.5	16.5	16.5	57	4.0	3	9	270	0.00	30.150 
16:40	16.2	16.2	16.2	58	4.1	3	6	248	0.00	30.150 
16:45	16.1	16.1	16.1	59	4.3	3	6	248	0.00	30.155 
16:50	16.1	16.1	16.1	59	4.3	2	7	248	0.00	30.155 
16:55	15.9	15.9	15.9	59	4.1	2	5	270	0.00	30.155 
17:00	15.9	15.9	15.9	59	4.1	3	6	248	0.00	30.157 
17:05	15.7	15.7	15.7	60	4.3	3	9	248	0.00	30.157 
17:10	15.6	15.6	15.6	60	4.2	2	5	248	0.00	30.157 
17:15	15.4	15.4	15.4	59	3.7	2	6	248	0.00	30.162 
17:20	15.2	15.2	15.2	59	3.5	2	5	270	0.00	30.162 
17:25	15.1	15.1	15.1	58	3.0	1	6	248	0.00	30.162 
17:30	15.1	15.1	15.1	57	2.6	2	5	248	0.00	30.166 
17:35	15.1	15.1	15.1	56	2.3	2	6	248	0.00	30.166 
17:40	15.1	15.1	15.1	56	2.3	2	5	248	0.00	30.166 
17:45	15.1	15.1	15.1	57	2.6	2	10	248	0.00	30.171 
17:50	14.9	14.9	14.9	58	2.8	1	4	248	0.00	30.171 
17:55	14.9	14.9	14.9	58	2.8	2	6	248	0.00	30.171 
18:00	14.9	14.9	14.9	58	2.8	2	6	248	0.00	30.174 
18:05	14.8	14.8	14.8	58	2.7	2	6	248	0.00	30.174 
18:10	14.8	14.8	14.8	59	3.1	2	6	248	0.00	30.174 
18:15	14.8	14.8	14.8	59	3.1	2	7	248	0.00	30.179 
18:20	14.8	14.8	14.8	59	3.1	1	6	248	0.00	30.179 
18:25	14.6	14.6	14.6	60	3.3	2	5	248	0.00	30.179 
18:30	14.6	14.6	14.6	60	3.3	1	5	248	0.00	30.183 
18:35	14.4	14.4	14.4	61	3.4	1	4	248	0.00	30.183 
18:40	14.4	14.4	14.4	62	3.8	1	4	248	0.00	30.183 
18:45	14.3	14.3	14.3	62	3.7	1	4	248	0.00	30.190 
18:50	14.3	14.3	14.3	64	4.4	1	3	248	0.00	30.190 
18:55	14.1	14.1	14.1	65	4.5	1	4	248	0.00	30.190 
19:00	14.1	14.1	14.1	66	4.9	1	5	248	0.00	30.198 
19:05	14.1	14.1	14.1	67	5.2	0	3	248	0.00	30.198 
19:10	14.1	14.1	14.1	68	5.5	1	3	248	0.00	30.198 
19:15	14.0	14.0	14.0	68	5.4	1	5	248	0.00	30.202 
19:20	14.1	14.1	14.1	69	5.8	1	4	248	0.00	30.202 
19:25	14.1	14.1	14.1	69	5.8	1	4	248	0.00	30.202 
19:30	14.1	14.1	14.1	70	6.1	1	5	248	0.00	30.206 
19:35	14.1	14.1	14.1	71	6.5	1	5	248	0.00	30.206 
19:40	14.3	14.3	14.3	72	7.0	1	3	248	0.00	30.206 
19:45	14.3	14.3	14.3	72	7.0	0	2	248	0.00	30.211 
19:50	14.3	14.3	14.3	73	7.3	0	3	248	0.00	30.211 
19:55	14.3	14.3	14.3	73	7.3	1	6	248	0.00	30.211 
20:00	14.4	14.4	14.4	73	7.4	1	3	248	0.00	30.217 
20:05	14.6	14.6	14.6	73	7.5	1	5	248	0.00	30.217 
20:10	14.8	14.8	14.8	73	7.7	1	5	248	0.00	30.217 
20:15	14.9	14.9	14.9	73	7.8	1	5	248	0.00	30.213 
20:20	15.1	15.1	15.1	71	7.4	1	7	248	0.00	30.213 
20:25	15.1	15.1	15.1	70	7.1	2	5	248	0.00	30.213 
20:30	15.1	15.1	15.1	69	6.8	0	3	248	0.00	30.216 
20:35	15.1	15.1	15.1	69	6.8	1	3	248	0.00	30.216 
20:40	15.2	15.2	15.2	68	6.6	1	3	248	0.00	30.216 
20:45	15.2	15.2	15.2	67	6.2	1	4	248	0.00	30.214 
20:50	15.2	15.2	15.2	67	6.2	1	4	248	0.00	30.214 
20:55	15.2	15.2	15.2	66	5.9	1	4	248	0.00	30.214 
21:00	15.4	15.4	15.4	66	6.1	1	5	248	0.00	30.216 
21:05	15.6	15.6	15.6	65	6.0	1	5	248	0.00	30.216 
21:10	15.6	15.6	15.6	65	6.0	1	5	248	0.00	30.216 
21:15	15.7	15.7	15.7	65	6.1	1	4	248	0.00	30.213 
21:20	15.7	15.7	15.7	65	6.1	2	6	248	0.00	30.213 
21:25	15.7	15.7	15.7	65	6.1	1	3	248	0.00	30.213 
21:30	15.9	15.9	15.9	65	6.2	1	5	248	0.00	30.215 
21:35	15.9	15.9	15.9	64	5.9	2	5	248	0.00	30.215 
21:40	15.9	15.9	15.9	64	5.9	1	4	248	0.00	30.215 
21:45	15.9	15.9	15.9	64	5.9	1	3	248	0.00	30.217 
21:50	15.9	15.9	15.9	64	5.9	1	3	248	0.00	30.217 
21:55	16.1	16.1	16.1	63	5.8	1	4	248	0.00	30.217 
22:00	16.1	16.1	16.1	63	5.8	1	5	248	0.00	30.217 
22:05	16.1	16.1	16.1	63	5.8	1	5	248	0.00	30.217 
22:10	16.1	16.1	16.1	63	5.8	1	4	270	0.00	30.217 
22:15	16.2	16.2	16.2	62	5.5	1	5	270	0.00	30.216 
22:20	16.2	16.2	16.2	61	5.1	1	4	248	0.00	30.216 
22:25	16.4	16.4	16.4	60	5.0	1	3	248	0.00	30.216 
22:30	16.4	16.4	16.4	60	5.0	1	3	248	0.00	30.216 
22:35	16.4	16.4	16.4	59	4.6	2	7	248	0.00	30.216 
22:40	16.4	16.4	16.4	60	5.0	0	4	248	0.00	30.216 
22:45	16.4	16.4	16.4	60	5.0	1	3	248	0.00	30.218 
22:50	16.5	16.5	16.5	60	5.1	2	6	248	0.00	30.218 
22:55	16.5	16.5	16.5	60	5.1	2	4	248	0.00	30.218 
23:00	16.5	16.5	16.5	60	5.1	1	5	248	0.00	30.214 
23:05	16.4	16.4	16.4	60	5.0	1	4	248	0.00	30.214 
23:10	16.4	16.4	16.4	60	5.0	1	5	248	0.00	30.214 
23:15	16.4	16.4	16.4	60	5.0	1	6	248	0.00	30.215 
23:20	16.4	16.4	16.4	60	5.0	0	4	248	0.00	30.215 
23:25	16.4	16.4	16.4	60	5.0	0	2	248	0.00	30.215 
23:30	16.4	16.4	16.4	60	5.0	1	3	248	0.00	30.215 
23:35	16.4	16.4	16.4	60	5.0	1	3	248	0.00	30.215 
23:40	16.4	16.4	16.4	60	5.0	0	4	248	0.00	30.215 
23:45	16.2	16.2	16.2	60	4.8	0	2	248	0.00	30.213 
23:50	16.2	16.2	16.2	60	4.8	1	3	248	0.00	30.213 
23:55	16.2	16.2	16.2	60	4.8	0	3	248	0.00	30.213 

CoCoRaHS
IN-AL-39
A2 Web Hosting
Creative Commons License
GoDaddy
search engine by freefind advanced

loaded 2018-11-17 23:34:12 • last modified 2010-11-18 10:43:29
Privacy PolicyDisclaimer
• wx.awcolley.com is powered by PmWiki v.2002016 •
• all content (unless otherwise noted) © 2018 A W Colley